Time;durP1;ratioP1;P1;durP2;ratioP2;P2;SDS_P1;SDS_P2;PMS_P1;PMS_P2;Temp;Humidity;BMP_temperature;BMP_pressure;BME280_temperature;BME280_humidity;BME280_pressure;Samples;Min_cycle;Max_cycle;Signal;HPM_P1;HPM_P2
2022/02/09 00:00:26;;;;;;;9.70;6.53;;;;;;;2.03;70.82;99925.24;1662489;85;22498;-71
2022/02/09 00:03:08;;;;;;;15.87;9.20;;;;;;;2.07;70.85;99937.12;1689614;84;21013;-74
2022/02/09 00:05:29;;;;;;;10.70;6.67;;;;;;;2.07;70.85;99935.34;1680862;84;20968;-70
2022/02/09 00:10:24;;;;;;;17.67;8.73;;;;;;;2.09;70.81;99927.29;1685244;84;21019;-78
2022/02/09 00:13:07;;;;;;;15.20;6.93;;;;;;;2.11;70.92;99928.83;1687986;84;21073;-72
2022/02/09 00:15:30;;;;;;;12.87;7.87;;;;;;;2.11;70.99;99917.45;1690504;84;21033;-71
2022/02/09 00:17:52;;;;;;;13.40;7.57;;;;;;;2.15;70.90;99921.48;1687177;83;21048;-72
2022/02/09 00:20:44;;;;;;;10.67;7.23;;;;;;;2.16;70.88;99920.48;1687327;84;21093;-70
2022/02/09 00:36:17;;;;;;;14.60;7.50;;;;;;;2.14;70.93;99903.53;1640650;86;21016;-75
2022/02/09 00:39:05;;;;;;;12.00;8.10;;;;;;;2.19;70.82;99903.13;1710631;83;21518;-71
2022/02/09 00:41:42;;;;;;;13.17;6.97;;;;;;;2.17;70.85;99900.27;1658185;85;21581;-71
2022/02/09 01:12:36;;;;;;;9.43;6.50;;;;;;;2.07;72.03;99880.14;1807122;76;23015;-72
2022/02/09 01:56:33;;;;;;;9.47;6.03;;;;;;;1.89;76.30;99845.88;1678907;84;21612;-74
2022/02/09 01:58:59;;;;;;;12.63;6.93;;;;;;;1.94;76.41;99847.59;1675327;84;21016;-72
2022/02/09 02:01:26;;;;;;;12.63;7.87;;;;;;;1.94;76.59;99850.69;1672475;83;21551;-71
2022/02/09 02:03:53;;;;;;;12.30;8.37;;;;;;;1.87;76.99;99849.64;1690852;83;21020;-71
2022/02/09 02:06:20;;;;;;;15.13;8.43;;;;;;;1.81;77.49;99852.36;1695996;83;21088;-72
2022/02/09 02:08:50;;;;;;;12.50;8.07;;;;;;;1.79;77.96;99852.98;1682776;83;21059;-72
2022/02/09 02:11:26;;;;;;;8.87;7.30;;;;;;;1.77;78.23;99856.71;1681142;83;21075;-71
2022/02/09 02:16:44;;;;;;;9.47;6.70;;;;;;;1.85;78.50;99836.63;1666166;85;21103;-71
2022/02/09 02:19:14;;;;;;;10.77;8.03;;;;;;;1.88;78.72;99837.64;1667956;85;21059;-72
2022/02/09 02:24:43;;;;;;;14.43;7.97;;;;;;;1.86;79.29;99844.02;1659028;85;21047;-70
2022/02/09 02:59:41;;;;;;;11.13;7.10;;;;;;;1.77;80.28;99838.31;1703346;83;21191;-73
2022/02/09 03:13:23;;;;;;;10.60;7.20;;;;;;;1.77;80.86;99837.82;1714283;82;21025;-73
2022/02/09 03:16:00;;;;;;;10.03;6.73;;;;;;;1.86;80.80;99837.45;1703155;83;21166;-76
2022/02/09 03:23:46;;;;;;;8.73;6.83;;;;;;;1.86;80.70;99844.02;1720679;82;21025;-71
2022/02/09 03:58:06;;;;;;;11.27;7.30;;;;;;;2.28;80.89;99865.44;1671092;84;21133;-69
2022/02/09 04:00:37;;;;;;;12.37;6.07;;;;;;;2.21;80.92;99863.05;1680739;84;21045;-71
2022/02/09 04:03:05;;;;;;;9.97;6.77;;;;;;;2.22;81.25;99862.55;1681928;84;21020;-71
2022/02/09 04:05:32;;;;;;;7.93;6.43;;;;;;;2.28;81.06;99864.13;1685953;84;21519;-70
2022/02/09 04:08:00;;;;;;;7.17;6.42;;;;;;;2.39;80.67;99868.33;1677457;84;21043;-72
2022/02/09 04:10:35;;;;;;;8.77;5.77;;;;;;;2.39;80.67;99868.33;1649923;84;21561;-71
2022/02/09 04:37:14;;;;;;;10.40;6.97;;;;;;;2.25;82.01;99878.05;1677233;83;21074;-71
2022/02/09 04:39:49;;;;;;;10.03;7.47;;;;;;;2.22;82.61;99877.02;1702396;83;21045;-71
2022/02/09 04:47:30;;;;;;;9.77;6.97;;;;;;;2.30;82.69;99885.84;1680644;83;21086;-69
2022/02/09 04:55:25;;;;;;;8.60;7.27;;;;;;;2.40;82.69;99896.80;1695402;83;21052;-69
2022/02/09 04:57:45;;;;;;;10.93;8.33;;;;;;;2.33;82.92;99899.17;1725120;81;21109;-70
2022/02/09 05:19:28;;;;;;;10.08;8.18;;;;;;;2.33;83.98;99901.31;1765591;80;21041;-74
2022/02/09 05:26:37;;;;;;;10.00;8.47;;;;;;;2.56;83.77;99934.30;1734419;81;21509;-71
2022/02/09 05:28:49;;;;;;;11.37;8.67;;;;;;;2.54;83.88;99937.07;1724142;81;20962;-72
2022/02/09 05:31:15;;;;;;;12.53;10.63;;;;;;;2.44;84.73;99939.75;1729773;81;21502;-72
2022/02/09 05:33:41;;;;;;;10.88;9.30;;;;;;;2.44;84.73;99939.75;1738207;80;21013;-72
2022/02/09 05:36:08;;;;;;;10.53;8.73;;;;;;;2.45;84.93;99940.11;1761789;80;21486;-74
2022/02/09 05:38:35;;;;;;;9.70;8.23;;;;;;;2.50;84.82;99941.80;1761383;80;21118;-72
2022/02/09 05:41:02;;;;;;;8.98;7.97;;;;;;;2.59;84.56;99944.55;1744007;80;21025;-71
2022/02/09 05:43:28;;;;;;;10.35;8.13;;;;;;;2.63;84.45;99948.04;1753682;80;21485;-72
2022/02/09 05:46:34;;;;;;;10.43;8.77;;;;;;;2.68;84.40;99950.25;1761434;80;21502;-71
2022/02/09 05:51:12;;;;;;;9.20;8.03;;;;;;;2.73;84.69;99958.52;1757712;80;21006;-71
2022/02/09 05:56:35;;;;;;;11.37;8.80;;;;;;;2.73;84.80;99962.45;1747203;80;21032;-72
2022/02/09 05:59:02;;;;;;;11.03;8.43;;;;;;;2.78;84.54;99972.56;1727799;81;21592;-74
2022/02/09 06:01:17;;;;;;;10.40;8.13;;;;;;;2.85;84.40;99974.95;1729517;81;21182;-72
2022/02/09 06:03:44;;;;;;;10.33;8.23;;;;;;;2.95;84.24;99974.89;1743753;81;21521;-72
2022/02/09 06:06:10;;;;;;;12.37;8.65;;;;;;;2.98;83.73;99979.38;1731766;81;21515;-72
2022/02/09 06:08:39;;;;;;;10.50;9.00;;;;;;;2.91;83.92;99974.36;1727563;81;21036;-71
2022/02/09 06:11:24;;;;;;;12.20;9.93;;;;;;;2.85;84.18;99977.09;1743863;81;21587;-70
2022/02/09 06:13:54;;;;;;;11.73;9.20;;;;;;;2.87;84.54;99982.21;1735800;81;21052;-75
2022/02/09 06:21:44;;;;;;;13.57;9.17;;;;;;;3.13;83.74;99992.87;1727898;81;21009;-72
2022/02/09 06:24:11;;;;;;;13.47;9.20;;;;;;;3.21;83.64;100001.34;1723764;81;21103;-72
2022/02/09 06:26:37;;;;;;;13.45;9.73;;;;;;;3.23;83.54;99997.57;1734471;81;21036;-74
2022/02/09 06:29:03;;;;;;;16.90;11.73;;;;;;;3.11;83.34;99991.70;1721858;81;20996;-74
2022/02/09 06:31:32;;;;;;;14.07;10.07;;;;;;;3.17;83.47;100003.94;1729979;81;21020;-70
2022/02/09 06:33:59;;;;;;;11.97;9.93;;;;;;;3.14;83.45;100000.27;1733394;81;21468;-73
2022/02/09 06:36:26;;;;;;;14.63;9.20;;;;;;;3.16;83.45;100007.04;1692727;83;21538;-66
2022/02/09 06:38:52;;;;;;;10.90;8.33;;;;;;;3.25;83.22;100008.78;1730399;81;21068;-72
2022/02/09 06:41:18;;;;;;;10.95;8.33;;;;;;;3.34;83.05;100007.57;1730219;81;21065;-75
2022/02/09 06:43:44;;;;;;;11.55;8.95;;;;;;;3.36;82.92;100016.97;1725650;81;20984;-72
2022/02/09 06:46:10;;;;;;;12.35;8.98;;;;;;;3.31;83.02;100020.06;1730424;81;21099;-75
2022/02/09 06:48:40;;;;;;;10.10;8.70;;;;;;;3.32;83.23;100018.25;1727938;81;21048;-76
2022/02/09 06:51:11;;;;;;;9.83;8.83;;;;;;;3.31;83.12;100024.02;1731312;81;21134;-76
2022/02/09 06:53:45;;;;;;;8.83;7.43;;;;;;;3.36;83.13;100028.00;1725880;81;21064;-76
2022/02/09 06:56:04;;;;;;;16.30;9.03;;;;;;;3.47;82.99;100037.01;1727702;81;21517;-71
2022/02/09 07:01:04;;;;;;;10.47;8.37;;;;;;;3.70;82.45;100038.70;1731150;81;20997;-73
2022/02/09 07:03:33;;;;;;;12.97;7.73;;;;;;;3.74;82.01;100036.09;1728487;81;21111;-73
2022/02/09 07:05:59;;;;;;;7.93;7.13;;;;;;;3.64;82.00;100025.64;1730775;81;20997;-72
2022/02/09 07:08:27;;;;;;;8.18;7.45;;;;;;;3.74;82.00;100043.19;1732432;81;21005;-63
2022/02/09 07:10:55;;;;;;;10.10;7.73;;;;;;;3.77;81.82;100040.23;1737053;81;20993;-62
2022/02/09 07:13:21;;;;;;;7.87;6.40;;;;;;;3.75;81.07;100044.36;1738477;81;21028;-62
2022/02/09 07:15:51;;;;;;;10.10;7.10;;;;;;;3.79;80.91;100044.89;1740108;81;21148;-64
2022/02/09 07:18:17;;;;;;;9.37;7.63;;;;;;;3.84;80.87;100047.88;1728599;81;21021;-62
2022/02/09 07:20:57;;;;;;;10.03;8.47;;;;;;;3.88;80.95;100050.54;1733965;81;21005;-62
2022/02/09 07:23:28;;;;;;;12.30;7.33;;;;;;;3.88;80.99;100052.70;1743655;81;20976;-63
2022/02/09 07:28:32;;;;;;;11.20;9.70;;;;;;;3.84;80.60;100065.02;1736272;81;21025;-63
2022/02/09 07:31:00;;;;;;;8.73;6.80;;;;;;;3.94;80.72;100057.86;1736912;81;20955;-62
2022/02/09 07:33:27;;;;;;;13.30;8.23;;;;;;;4.00;80.58;100063.02;1733785;81;21001;-61
2022/02/09 07:35:53;;;;;;;;;;;;;;;3.98;80.58;100061.03;1735630;81;20986;-62
2022/02/09 07:38:19;;;;;;;12.43;8.30;;;;;;;3.96;80.40;100065.62;1710555;83;20147;-64
2022/02/09 07:40:47;;;;;;;7.10;6.40;;;;;;;3.89;80.61;100070.67;1737626;81;21086;-63
2022/02/09 07:43:24;;;;;;;7.10;6.40;;;;;;;3.92;80.54;100068.20;1730767;81;21032;-64
2022/02/09 07:51:37;;;;;;;8.23;5.73;;;;;;;4.13;80.08;100067.91;1734523;81;21503;-61
2022/02/09 07:54:16;;;;;;;;;;;;;;;4.15;80.10;100084.41;1734721;81;21536;-61
2022/02/09 07:56:17;;;;;;;8.87;5.70;;;;;;;4.19;79.91;100077.84;1734345;81;20101;-62
2022/02/09 07:58:47;;;;;;;9.70;5.90;;;;;;;4.16;80.00;100083.41;1730256;81;21025;-62
2022/02/09 08:01:13;;;;;;;6.30;5.70;;;;;;;4.21;79.74;100078.52;1728382;81;21707;-62
2022/02/09 08:03:41;;;;;;;5.67;4.92;;;;;;;4.24;79.22;100082.17;1716043;81;21501;-64
2022/02/09 08:06:09;;;;;;;7.03;4.57;;;;;;;4.32;78.94;100076.12;1731011;81;21044;-61
2022/02/09 08:08:36;;;;;;;5.47;4.03;;;;;;;4.35;78.79;100091.16;1728795;81;21013;-63
2022/02/09 08:34:57;;;;;;;5.03;3.83;;;;;;;4.63;77.49;100103.73;1720792;81;21504;-61
2022/02/09 08:37:25;;;;;;;7.87;6.13;;;;;;;4.69;77.35;100110.20;1723188;81;21061;-62
2022/02/09 08:39:54;;;;;;;7.37;3.70;;;;;;;4.79;77.06;100108.27;1730071;81;21133;-63
2022/02/09 08:42:20;;;;;;;4.13;3.70;;;;;;;4.89;76.74;100117.39;1713651;81;21113;-63
2022/02/09 08:44:47;;;;;;;5.43;3.53;;;;;;;4.93;76.50;100122.69;1727993;81;21108;-62
2022/02/09 08:47:13;;;;;;;4.03;2.70;;;;;;;4.95;76.49;100119.89;1700485;83;21030;-63
2022/02/09 08:49:39;;;;;;;4.53;2.92;;;;;;;4.97;76.03;100126.70;1672628;84;21041;-62
2022/02/09 08:52:07;;;;;;;5.92;3.55;;;;;;;4.98;75.45;100133.62;1680658;83;21079;-63
2022/02/09 08:54:33;;;;;;;6.57;3.17;;;;;;;4.92;75.08;100120.23;1680079;83;21035;-61
2022/02/09 08:57:07;;;;;;;6.35;3.50;;;;;;;4.86;74.76;100138.85;1657717;83;21113;-61
2022/02/09 08:59:29;;;;;;;4.20;2.97;;;;;;;4.86;74.68;100134.89;1697404;83;21056;-60
2022/02/09 09:02:03;;;;;;;6.63;2.80;;;;;;;4.85;74.84;100139.31;1698555;83;21037;-63
2022/02/09 09:04:34;;;;;;;6.53;2.93;;;;;;;4.83;74.92;100126.77;1697996;83;21046;-62
2022/02/09 09:07:04;;;;;;;7.37;2.63;;;;;;;4.80;74.86;100135.02;1690477;84;21092;-63
2022/02/09 09:09:39;;;;;;;3.77;1.67;;;;;;;4.77;74.81;100141.09;1671750;84;21001;-61
2022/02/09 09:14:48;;;;;;;6.73;3.53;;;;;;;4.81;74.76;100143.77;1674851;83;21123;-62
2022/02/09 09:58:21;;;;;;;1.93;0.50;;;;;;;5.34;66.44;100159.88;1669950;84;21041;-62
2022/02/09 10:30:59;;;;;;;3.83;1.07;;;;;;;5.54;63.50;100148.58;1672884;84;21078;-62
2022/02/09 10:34:05;;;;;;;1.60;0.50;;;;;;;5.54;62.78;100163.58;1668312;84;21040;-63
2022/02/09 10:36:55;;;;;;;3.60;0.53;;;;;;;5.56;62.75;100161.14;1670159;84;21097;-62
2022/02/09 10:39:32;;;;;;;1.83;0.90;;;;;;;5.59;62.72;100171.38;1673373;84;21075;-63
2022/02/09 10:42:20;;;;;;;4.17;0.40;;;;;;;5.65;62.64;100178.69;1691163;83;21601;-62
2022/02/09 10:44:49;;;;;;;3.60;0.63;;;;;;;5.70;62.80;100174.23;1686078;80;22089;-63
2022/02/09 10:47:37;;;;;;;2.73;0.93;;;;;;;5.72;62.52;100180.68;1668795;84;21527;-62
2022/02/09 10:50:23;;;;;;;3.57;0.60;;;;;;;5.73;62.90;100179.70;1700664;83;20997;-62
2022/02/09 10:52:49;;;;;;;3.90;0.70;;;;;;;5.71;62.83;100185.16;1663831;84;21094;-62
2022/02/09 10:55:35;;;;;;;3.53;0.77;;;;;;;5.70;62.67;100180.02;1694184;83;21038;-64
2022/02/09 10:58:06;;;;;;;1.83;0.57;;;;;;;5.72;62.39;100187.30;1669916;84;21173;-63
2022/02/09 11:00:32;;;;;;;8.60;0.57;;;;;;;5.73;62.54;100183.67;1691328;83;21568;-62
2022/02/09 11:02:59;;;;;;;1.25;0.40;;;;;;;5.74;61.66;100174.73;1692072;83;20982;-63
2022/02/09 11:05:26;;;;;;;5.37;0.50;;;;;;;5.73;61.64;100192.43;1671479;84;20997;-64
2022/02/09 11:07:58;;;;;;;4.07;0.50;;;;;;;5.72;61.91;100183.33;1668620;84;21286;-63
2022/02/09 11:10:24;;;;;;;3.40;0.50;;;;;;;5.73;61.65;100185.00;1671086;84;21148;-62
2022/02/09 11:12:52;;;;;;;3.27;0.67;;;;;;;5.78;61.17;100203.36;1665880;84;21012;-64
2022/02/09 11:15:21;;;;;;;3.07;0.90;;;;;;;5.76;61.02;100199.20;1670472;84;21076;-62
2022/02/09 11:17:49;;;;;;;3.47;0.93;;;;;;;5.79;61.50;100210.80;1675924;84;21093;-64
2022/02/09 11:20:24;;;;;;;1.30;0.50;;;;;;;5.79;61.01;100206.33;1669037;84;21044;-62
2022/02/09 11:22:48;;;;;;;6.13;0.73;;;;;;;5.46;60.42;100157.77;1671084;84;21102;-60
2022/02/09 11:25:33;;;;;;;3.47;0.55;;;;;;;5.83;60.40;100214.77;1667275;84;21849;-63
2022/02/09 11:28:26;;;;;;;1.43;0.70;;;;;;;5.78;59.84;100207.33;1665632;84;21119;-64
2022/02/09 11:31:14;;;;;;;2.37;0.87;;;;;;;5.73;59.84;100216.73;1665148;84;21088;-63
2022/02/09 11:34:02;;;;;;;3.42;1.02;;;;;;;5.68;60.09;100230.92;1687004;83;20965;-63
2022/02/09 11:39:21;;;;;;;1.37;0.83;;;;;;;5.75;60.45;100224.02;1638461;86;21066;-64
2022/02/09 11:42:09;;;;;;;4.37;0.97;;;;;;;5.79;59.96;100224.84;1668619;84;21046;-62
2022/02/09 11:47:55;;;;;;;3.07;0.50;;;;;;;5.89;60.14;100234.47;1694225;84;21007;-63
2022/02/09 11:50:38;;;;;;;3.37;1.20;;;;;;;5.96;60.22;100240.30;1696245;83;21132;-62
2022/02/09 11:52:52;;;;;;;4.10;0.53;;;;;;;6.03;60.26;100245.80;1694241;83;21182;-62
2022/02/09 11:55:49;;;;;;;4.67;0.70;;;;;;;6.06;59.43;100236.70;1696875;83;21010;-64
2022/02/09 12:08:53;;;;;;;1.93;0.63;;;;;;;6.01;58.95;100245.13;1696951;83;21076;-64
2022/02/09 12:11:40;;;;;;;2.63;0.67;;;;;;;6.04;58.11;100228.41;1662114;84;21062;-63
2022/02/09 12:16:50;;;;;;;2.93;0.70;;;;;;;6.08;57.68;100234.72;1685985;84;21034;-63
2022/02/09 12:19:29;;;;;;;2.57;0.77;;;;;;;6.10;57.45;100245.46;1692123;84;21010;-63
2022/02/09 12:24:32;;;;;;;2.70;1.37;;;;;;;6.09;57.54;100246.47;1693386;83;21651;-62
2022/02/09 12:27:07;;;;;;;4.17;0.80;;;;;;;6.08;57.26;100255.89;1685386;83;21058;-63
2022/02/09 12:29:44;;;;;;;3.77;1.47;;;;;;;6.07;57.32;100260.86;1691866;84;21067;-62
2022/02/09 12:32:23;;;;;;;3.30;1.32;;;;;;;6.05;57.54;100263.66;1668417;84;21336;-62
2022/02/09 12:35:07;;;;;;;1.77;0.60;;;;;;;6.09;58.00;100261.53;1683961;84;20986;-63
2022/02/09 12:37:37;;;;;;;6.50;1.60;;;;;;;6.12;57.64;100266.00;1657169;84;21031;-63
2022/02/09 12:40:12;;;;;;;4.47;1.43;;;;;;;6.16;57.57;100271.30;1694396;83;21037;-63
2022/02/09 12:42:44;;;;;;;4.23;1.50;;;;;;;6.21;57.18;100268.16;1703128;83;22233;-65
2022/02/09 12:45:23;;;;;;;5.20;1.30;;;;;;;6.23;57.54;100264.37;1695841;83;22067;-65
2022/02/09 12:47:53;;;;;;;3.33;1.60;;;;;;;6.28;57.56;100275.80;1671400;84;21414;-64
2022/02/09 12:50:39;;;;;;;4.67;1.03;;;;;;;6.35;57.24;100285.25;1670609;84;21523;-65
2022/02/09 12:53:04;;;;;;;4.97;1.67;;;;;;;6.40;57.47;100286.42;1693917;84;20996;-64
2022/02/09 12:55:33;;;;;;;;;;;;;;;6.43;56.52;100275.99;1696310;83;21709;-63
2022/02/09 12:58:05;;;;;;;3.53;0.50;;;;;;;6.43;56.21;100275.48;1689794;84;20114;-62
2022/02/09 13:00:40;;;;;;;2.07;0.40;;;;;;;6.38;55.85;100272.49;1678740;83;21066;-64
2022/02/09 13:03:11;;;;;;;3.43;0.80;;;;;;;6.39;55.78;100289.23;1672662;84;21058;-63
2022/02/09 13:05:51;;;;;;;3.90;0.50;;;;;;;6.41;55.94;100284.59;1689766;85;21046;-62
2022/02/09 13:08:26;;;;;;;1.87;0.47;;;;;;;6.45;55.06;100288.57;1665970;84;22068;-63
2022/02/09 13:11:14;;;;;;;2.97;0.57;;;;;;;6.46;54.83;100284.09;1690884;84;21547;-64
2022/02/09 13:13:33;;;;;;;2.97;0.90;;;;;;;6.44;55.10;100285.58;1687330;83;21221;-63
2022/02/09 14:06:11;;;;;;;10.83;2.50;;;;;;;5.84;57.22;100357.96;1646752;86;21561;-73
2022/02/09 14:11:00;;;;;;;5.80;2.77;;;;;;;5.81;57.75;100359.59;1648318;85;21063;-75
2022/02/09 14:19:00;;;;;;;2.67;1.33;;;;;;;5.74;57.94;100367.80;1610045;86;21054;-74
2022/02/09 14:53:59;;;;;;;5.80;1.95;;;;;;;5.41;58.98;100424.44;1669654;84;21110;-70
2022/02/09 14:55:31;;;;;;;2.63;1.50;;;;;;;5.35;59.02;100417.09;1651204;84;21077;-72
2022/02/09 14:58:03;;;;;;;4.40;1.93;;;;;;;5.30;59.28;100418.88;1659839;84;21022;-71
2022/02/09 15:00:22;;;;;;;4.80;1.90;;;;;;;5.29;59.29;100423.81;1660770;84;21129;-72
2022/02/09 15:07:46;;;;;;;4.72;2.55;;;;;;;5.25;60.00;100445.78;1671043;84;22235;-71
2022/02/09 15:10:17;;;;;;;7.03;2.63;;;;;;;5.19;59.96;100452.97;1670765;84;21033;-73
2022/02/09 15:15:25;;;;;;;9.93;2.57;;;;;;;5.01;60.21;100454.76;1679933;84;21052;-70
2022/02/09 15:18:20;;;;;;;7.40;3.43;;;;;;;4.97;60.27;100460.00;1654687;84;21143;-72
2022/02/09 15:23:07;;;;;;;6.63;3.20;;;;;;;4.91;60.57;100467.20;1672305;82;21022;-69
2022/02/09 15:25:34;;;;;;;5.53;3.07;;;;;;;4.85;60.69;100462.85;1730710;82;21684;-71
2022/02/09 15:28:02;;;;;;;10.63;4.43;;;;;;;4.80;61.00;100474.37;1720764;82;21561;-72
2022/02/09 15:30:34;;;;;;;9.33;3.40;;;;;;;4.79;60.95;100470.55;1707284;82;21073;-71
2022/02/09 15:32:58;;;;;;;5.60;4.13;;;;;;;4.77;61.16;100481.26;1702241;82;21075;-70
2022/02/09 15:35:35;;;;;;;7.87;4.07;;;;;;;4.72;61.25;100482.17;1662764;83;21053;-72
2022/02/09 15:38:20;;;;;;;7.50;3.57;;;;;;;4.67;61.24;100483.95;1655366;85;21070;-73
2022/02/09 16:10:35;;;;;;;3.17;1.67;;;;;;;4.41;61.81;100527.83;1669416;84;21021;-71
2022/02/09 16:44:23;;;;;;;6.37;3.40;;;;;;;4.10;62.45;100556.54;1646705;85;21010;-74
2022/02/09 16:46:55;;;;;;;6.97;3.67;;;;;;;4.11;62.70;100561.35;1651286;84;21576;-73
2022/02/09 16:49:30;;;;;;;9.13;3.93;;;;;;;4.14;62.69;100563.69;1668223;84;21545;-72
2022/02/09 16:52:00;;;;;;;8.13;4.23;;;;;;;4.18;62.44;100571.69;1664898;84;21023;-72
2022/02/09 16:56:59;;;;;;;12.13;4.87;;;;;;;4.26;62.36;100577.58;1656148;84;21151;-72
2022/02/09 17:20:58;;;;;;;7.80;3.53;;;;;;;4.25;62.69;100587.77;1653263;84;21019;-72
2022/02/09 17:23:24;;;;;;;9.10;4.08;;;;;;;4.24;62.94;100590.91;1663640;83;21030;-74
2022/02/09 17:25:50;;;;;;;6.83;3.40;;;;;;;4.24;62.94;100590.91;1664737;84;21003;-74
2022/02/09 17:28:17;;;;;;;8.50;3.72;;;;;;;4.27;62.57;100594.56;1663012;84;21340;-72
2022/02/09 17:33:31;;;;;;;7.47;3.20;;;;;;;4.38;62.31;100585.66;1649857;84;21093;-76
2022/02/09 17:35:49;;;;;;;11.40;3.60;;;;;;;4.41;62.04;100592.00;1638698;86;20982;-74
2022/02/09 17:57:21;;;;;;;4.90;3.10;;;;;;;4.45;61.46;100589.41;1674480;83;21012;-75
2022/02/09 17:59:56;;;;;;;9.07;3.87;;;;;;;4.45;61.37;100597.33;1675598;84;21128;-73
2022/02/09 18:02:10;;;;;;;10.10;3.93;;;;;;;4.46;61.24;100599.01;1676563;84;21035;-73
2022/02/09 18:04:42;;;;;;;9.30;5.05;;;;;;;4.46;61.02;100596.37;1676639;84;21556;-73
2022/02/09 18:07:09;;;;;;;9.27;3.67;;;;;;;4.46;61.02;100596.37;1669933;84;21060;-71
2022/02/09 18:09:40;;;;;;;6.97;3.30;;;;;;;4.45;61.05;100602.61;1673587;84;21036;-73
2022/02/09 18:12:18;;;;;;;9.33;3.93;;;;;;;4.42;60.90;100598.92;1673120;84;21068;-75
2022/02/09 18:15:09;;;;;;;8.40;4.80;;;;;;;4.36;61.22;100595.53;1664996;84;21060;-75
2022/02/09 18:30:57;;;;;;;23.40;7.83;;;;;;;4.10;61.75;100592.65;1666454;84;21055;-72
2022/02/09 18:33:50;;;;;;;14.60;7.57;;;;;;;4.07;61.85;100605.64;1668925;82;21113;-70
2022/02/09 18:44:23;;;;;;;13.73;9.33;;;;;;;3.81;62.46;100587.39;1643890;85;21047;-75
2022/02/09 19:01:12;;;;;;;18.45;10.58;;;;;;;3.44;63.38;100594.62;1672943;84;21525;-74
2022/02/09 19:05:57;;;;;;;18.83;10.37;;;;;;;3.38;63.61;100601.76;1675260;84;20997;-73
2022/02/09 19:08:52;;;;;;;17.50;10.00;;;;;;;3.38;63.67;100603.08;1672489;84;21044;-73
2022/02/09 19:30:08;;;;;;;16.60;9.40;;;;;;;3.16;64.53;100594.41;1659158;84;21730;-71
2022/02/09 19:32:55;;;;;;;14.77;10.07;;;;;;;3.14;64.69;100597.66;1668730;84;21036;-73
2022/02/09 19:48:21;;;;;;;15.97;9.50;;;;;;;3.12;65.32;100599.10;1677323;83;21088;-72
2022/02/09 19:53:42;;;;;;;21.30;11.97;;;;;;;3.18;65.30;100607.45;1680099;83;21597;-71
2022/02/09 19:56:10;;;;;;;20.73;12.43;;;;;;;3.22;65.17;100608.38;1677967;83;20986;-73
2022/02/09 19:58:41;;;;;;;20.10;10.33;;;;;;;3.28;64.97;100599.93;1683900;83;21073;-73
2022/02/09 20:01:04;;;;;;;16.40;9.63;;;;;;;3.36;64.73;100599.25;1635916;86;21523;-77
2022/02/09 20:03:30;;;;;;;15.53;10.28;;;;;;;3.40;64.49;100592.73;1684464;84;20998;-71
2022/02/09 20:05:56;;;;;;;19.90;9.55;;;;;;;3.45;64.36;100591.03;1681800;83;21057;-71
2022/02/09 20:08:23;;;;;;;16.67;8.60;;;;;;;3.47;64.21;100594.36;1687847;83;21110;-73
2022/02/09 20:10:49;;;;;;;14.00;8.03;;;;;;;3.47;63.94;100591.73;1688916;83;21567;-76
2022/02/09 20:13:15;;;;;;;12.43;8.45;;;;;;;3.47;63.98;100591.23;1686075;83;21053;-73
2022/02/09 20:15:41;;;;;;;15.80;8.78;;;;;;;3.00;63.97;100511.14;1689470;83;21513;-72
2022/02/09 20:18:07;;;;;;;9.50;6.85;;;;;;;3.46;64.06;100582.14;1680191;83;21029;-73
2022/02/09 20:20:36;;;;;;;14.90;8.13;;;;;;;3.47;64.07;100579.87;1632007;86;21092;-72
2022/02/09 20:23:03;;;;;;;9.23;6.80;;;;;;;3.45;64.07;100580.48;1636608;85;21033;-75
2022/02/09 20:25:30;;;;;;;;;;;;;;;3.45;64.06;100572.58;1660066;84;21493;-73
2022/02/09 20:27:56;;;;;;;12.77;6.70;;;;;;;3.44;64.13;100570.41;1676375;83;20492;-75
2022/02/09 20:30:27;;;;;;;10.32;6.42;;;;;;;3.42;64.28;100566.26;1685716;83;21325;-71
2022/02/09 20:32:58;;;;;;;11.07;6.23;;;;;;;3.43;64.37;100561.34;1692497;83;21013;-70
2022/02/09 20:35:23;;;;;;;11.23;5.07;;;;;;;3.49;64.22;100568.70;1688560;83;21491;-70
2022/02/09 20:37:52;;;;;;;8.03;5.03;;;;;;;3.48;64.07;100566.56;1642277;86;20994;-71
2022/02/09 20:40:22;;;;;;;7.63;3.73;;;;;;;3.49;64.04;100565.58;1693165;83;21029;-76
2022/02/09 20:42:57;;;;;;;10.23;4.80;;;;;;;3.53;64.09;100564.81;1684955;83;21018;-71
2022/02/09 20:45:21;;;;;;;7.27;4.67;;;;;;;3.56;63.88;100555.80;1687331;83;21022;-73
2022/02/09 20:47:44;;;;;;;11.83;5.33;;;;;;;3.57;63.86;100566.70;1688738;83;21003;-73
2022/02/09 20:50:09;;;;;;;13.03;6.03;;;;;;;3.60;63.66;100555.86;1683041;83;21006;-71
2022/02/09 20:52:36;;;;;;;11.75;5.33;;;;;;;3.62;63.42;100558.72;1693532;83;21058;-73
2022/02/09 20:55:03;;;;;;;8.20;5.87;;;;;;;3.61;63.45;100557.05;1676317;83;21026;-71
2022/02/09 20:57:32;;;;;;;13.53;6.00;;;;;;;3.60;63.53;100559.81;1633908;86;21163;-73
2022/02/09 21:03:03;;;;;;;11.80;7.60;;;;;;;3.60;63.72;100561.98;1705681;83;21063;-70
2022/02/09 21:08:10;;;;;;;14.38;7.05;;;;;;;3.62;63.81;100572.40;1708370;83;21542;-72
2022/02/09 21:13:18;;;;;;;15.27;7.43;;;;;;;3.63;63.92;100572.23;1646327;84;21088;-72
2022/02/09 21:18:30;;;;;;;15.00;7.03;;;;;;;3.63;64.11;100570.92;1715868;83;21024;-74
2022/02/09 21:30:03;;;;;;;11.67;6.77;;;;;;;3.67;64.44;100568.84;1702477;83;21123;-70
2022/02/09 21:42:09;;;;;;;9.30;5.37;;;;;;;3.58;65.09;100562.61;1683541;83;21104;-72
2022/02/09 21:49:14;;;;;;;10.47;6.00;;;;;;;3.73;64.85;100551.64;1729407;83;21041;-70
2022/02/09 21:57:13;;;;;;;13.83;6.90;;;;;;;3.62;65.96;100542.91;1698809;83;21033;-71
2022/02/09 21:59:46;;;;;;;10.67;6.27;;;;;;;3.64;66.02;100541.45;1689765;83;20992;-71
2022/02/09 22:21:20;;;;;;;15.17;7.03;;;;;;;3.81;66.78;100540.75;1698987;83;21037;-69
2022/02/09 22:55:22;;;;;;;;;;;;;;;4.20;67.43;100514.80;1659238;83;21031;-69
2022/02/09 22:57:51;;;;;;;13.00;8.50;;;;;;;4.16;67.89;100517.38;1660853;84;20130;-69
2022/02/09 23:00:36;;;;;;;16.40;8.30;;;;;;;4.09;67.92;100519.28;1676174;84;21538;-69
2022/02/09 23:03:01;;;;;;;11.20;7.50;;;;;;;4.05;68.14;100513.95;1674666;84;21693;-69
2022/02/09 23:05:50;;;;;;;12.70;7.57;;;;;;;4.00;68.37;100512.21;1674547;84;21593;-70
2022/02/09 23:08:38;;;;;;;13.70;7.65;;;;;;;4.00;68.83;100510.89;1680958;84;21105;-68
2022/02/09 23:13:41;;;;;;;11.97;7.58;;;;;;;4.09;68.80;100502.13;1685584;83;21028;-71
2022/02/09 23:16:07;;;;;;;13.77;7.77;;;;;;;4.09;68.80;100502.13;1697757;83;21030;-71
2022/02/09 23:18:45;;;;;;;14.17;8.40;;;;;;;4.01;69.26;100497.20;1681124;83;21502;-69
2022/02/09 23:23:51;;;;;;;11.80;8.20;;;;;;;3.97;69.63;100493.20;1717160;82;21072;-69
2022/02/09 23:26:56;;;;;;;13.97;7.40;;;;;;;3.97;69.88;100495.83;1725628;82;21001;-70
